Time;durP1;ratioP1;P1;durP2;ratioP2;P2;SDS_P1;SDS_P2;PMS_P1;PMS_P2;Temp;Humidity;BMP_temperature;BMP_pressure;BME280_temperature;BME280_humidity;BME280_pressure;Samples;Min_cycle;Max_cycle;Signal;HPM_P1;HPM_P2
2024/03/16 00:00:47;;;;;;;1.70;0.90;;;12.60;99.90;;;;;;4934039;29;20283;-78
2024/03/16 00:03:13;;;;;;;4.07;0.73;;;12.50;99.90;;;;;;4933075;29;20561;-78
2024/03/16 00:05:38;;;;;;;2.67;0.80;;;12.50;99.90;;;;;;4934049;29;20177;-78
2024/03/16 00:08:05;;;;;;;2.70;1.30;;;12.50;99.90;;;;;;4933920;29;20216;-79
2024/03/16 00:10:34;;;;;;;2.40;0.90;;;12.50;99.90;;;;;;4947620;29;20271;-79
2024/03/16 00:12:59;;;;;;;1.77;0.90;;;12.50;99.90;;;;;;4934030;29;20631;-79
2024/03/16 00:15:26;;;;;;;5.67;0.80;;;12.50;99.90;;;;;;4948662;29;20181;-79
2024/03/16 00:17:52;;;;;;;2.35;0.77;;;12.50;99.90;;;;;;4932639;29;20537;-79
2024/03/16 00:20:18;;;;;;;2.25;1.02;;;12.50;99.90;;;;;;4933799;29;20189;-80
2024/03/16 00:22:44;;;;;;;4.30;1.23;;;12.50;99.90;;;;;;4931894;29;20605;-80
2024/03/16 00:25:10;;;;;;;2.73;0.90;;;12.50;99.90;;;;;;4933515;29;20189;-79
2024/03/16 00:27:36;;;;;;;4.30;1.00;;;12.40;99.90;;;;;;4933724;29;20641;-80
2024/03/16 00:30:07;;;;;;;2.97;0.70;;;12.40;99.90;;;;;;4933692;29;20239;-80
2024/03/16 00:32:33;;;;;;;1.83;0.90;;;12.40;99.90;;;;;;4932845;29;20236;-79
2024/03/16 00:34:59;;;;;;;2.00;0.80;;;12.40;99.90;;;;;;4933595;29;20635;-80
2024/03/16 00:37:24;;;;;;;2.77;1.03;;;12.40;99.90;;;;;;4933762;29;20263;-79
2024/03/16 00:39:50;;;;;;;3.43;1.10;;;12.30;99.90;;;;;;4933386;29;20196;-80
2024/03/16 00:42:16;;;;;;;4.80;1.30;;;12.30;99.90;;;;;;4932939;29;20209;-80
2024/03/16 00:44:41;;;;;;;2.30;0.97;;;12.30;99.90;;;;;;4933683;29;20585;-79
2024/03/16 00:47:07;;;;;;;2.60;0.80;;;12.30;99.90;;;;;;4933516;29;20219;-79
2024/03/16 00:49:34;;;;;;;2.00;0.90;;;12.30;99.90;;;;;;4933698;29;20177;-79
2024/03/16 00:52:00;;;;;;;2.28;1.20;;;12.30;99.90;;;;;;4932579;29;20601;-78
2024/03/16 00:54:26;;;;;;;2.33;0.90;;;12.30;99.90;;;;;;4933971;29;20571;-79
2024/03/16 00:56:52;;;;;;;4.60;1.00;;;12.30;99.90;;;;;;4933566;29;20605;-79
2024/03/16 00:59:18;;;;;;;2.00;0.82;;;12.30;99.90;;;;;;4933457;29;20196;-80
2024/03/16 01:01:45;;;;;;;6.97;0.90;;;12.30;99.90;;;;;;4932591;29;20208;-80
2024/03/16 01:04:10;;;;;;;2.10;0.73;;;12.30;99.90;;;;;;4931980;29;20224;-80
2024/03/16 01:06:36;;;;;;;4.83;1.00;;;12.30;99.90;;;;;;4931445;29;20951;-79
2024/03/16 01:09:03;;;;;;;1.60;0.75;;;12.30;99.90;;;;;;4931874;29;20193;-80
2024/03/16 01:11:29;;;;;;;1.45;0.70;;;12.20;99.90;;;;;;4932021;29;20169;-79
2024/03/16 01:13:55;;;;;;;1.67;0.70;;;12.20;99.90;;;;;;4931377;29;20212;-80
2024/03/16 01:16:21;;;;;;;2.87;0.80;;;12.20;99.90;;;;;;4933393;29;20177;-80
2024/03/16 01:18:46;;;;;;;2.93;0.70;;;12.20;99.90;;;;;;4933102;29;20185;-80
2024/03/16 01:21:12;;;;;;;1.40;0.60;;;12.20;99.90;;;;;;4931786;29;20177;-80
2024/03/16 01:23:38;;;;;;;2.60;0.60;;;12.20;99.90;;;;;;4931612;29;20193;-80
2024/03/16 01:26:05;;;;;;;1.40;0.60;;;12.20;99.90;;;;;;4946030;29;20200;-78
2024/03/16 01:28:32;;;;;;;2.15;0.50;;;12.30;99.90;;;;;;4937137;29;20209;-80
2024/03/16 01:30:57;;;;;;;1.20;0.50;;;12.20;99.90;;;;;;4935480;29;20208;-79
2024/03/16 01:33:24;;;;;;;1.30;0.60;;;12.20;99.90;;;;;;4936329;29;20271;-80
2024/03/16 01:35:50;;;;;;;1.30;0.50;;;12.20;99.90;;;;;;4952446;29;20589;-79
2024/03/16 01:38:16;;;;;;;2.15;0.52;;;12.20;99.90;;;;;;4944516;29;20193;-81
2024/03/16 01:40:43;;;;;;;1.27;0.50;;;12.20;99.90;;;;;;4937012;29;20180;-79
2024/03/16 01:43:12;;;;;;;2.45;0.68;;;12.20;99.90;;;;;;4935714;29;20589;-79
2024/03/16 01:45:42;;;;;;;1.35;0.60;;;12.20;99.90;;;;;;4934968;29;20297;-78
2024/03/16 01:48:12;;;;;;;1.52;0.60;;;12.20;99.90;;;;;;4936477;29;20209;-79
2024/03/16 01:50:38;;;;;;;2.05;0.80;;;12.30;99.90;;;;;;4937277;29;20173;-79
2024/03/16 01:53:06;;;;;;;2.05;0.70;;;12.30;99.90;;;;;;4934453;29;20212;-79
2024/03/16 01:55:33;;;;;;;1.50;0.90;;;12.20;99.90;;;;;;4937108;29;20194;-79
2024/03/16 01:57:59;;;;;;;2.75;0.80;;;12.20;99.90;;;;;;4937298;29;20267;-79
2024/03/16 02:00:26;;;;;;;2.03;0.70;;;12.20;99.90;;;;;;4935267;29;20185;-79
2024/03/16 02:02:54;;;;;;;2.50;0.70;;;12.20;99.90;;;;;;4934254;29;20212;-79
2024/03/16 02:05:24;;;;;;;2.75;0.90;;;12.20;99.90;;;;;;4936224;29;20236;-80
2024/03/16 02:07:50;;;;;;;1.58;0.70;;;12.20;99.90;;;;;;4918904;29;20205;-79
2024/03/16 02:10:15;;;;;;;3.10;0.83;;;12.20;99.90;;;;;;4934904;29;20181;-80
2024/03/16 02:12:42;;;;;;;3.43;0.70;;;12.20;99.90;;;;;;4934163;29;20625;-79
2024/03/16 02:15:08;;;;;;;1.90;0.60;;;12.20;99.90;;;;;;4936034;29;20192;-79
2024/03/16 02:17:35;;;;;;;1.70;0.80;;;12.20;99.90;;;;;;4936236;29;20200;-79
2024/03/16 02:20:14;;;;;;;2.75;0.75;;;12.10;99.90;;;;;;4921871;29;20589;-79
2024/03/16 02:22:42;;;;;;;1.70;0.63;;;12.10;99.90;;;;;;4929201;29;20728;-79
2024/03/16 02:25:09;;;;;;;1.40;0.60;;;12.10;99.90;;;;;;4935903;29;20181;-79
2024/03/16 02:27:35;;;;;;;3.08;0.75;;;12.10;99.90;;;;;;4934853;29;20360;-79
2024/03/16 02:30:02;;;;;;;3.03;0.70;;;12.10;99.90;;;;;;4936033;29;20688;-79
2024/03/16 02:32:28;;;;;;;2.33;0.68;;;12.10;99.90;;;;;;4935415;29;21025;-79
2024/03/16 02:34:53;;;;;;;2.92;0.70;;;12.10;99.90;;;;;;4935564;29;20201;-79
2024/03/16 02:37:19;;;;;;;3.00;0.70;;;12.10;99.90;;;;;;4934324;29;20225;-79
2024/03/16 02:39:45;;;;;;;1.67;0.70;;;12.10;99.90;;;;;;4950439;29;20539;-80
2024/03/16 02:42:11;;;;;;;1.60;0.60;;;12.10;99.90;;;;;;4934455;29;20227;-79
2024/03/16 02:44:37;;;;;;;2.60;0.73;;;12.10;99.90;;;;;;4935746;29;20181;-79
2024/03/16 02:47:04;;;;;;;1.87;0.63;;;12.10;99.90;;;;;;4935591;29;20226;-79
2024/03/16 02:49:30;;;;;;;2.92;0.70;;;12.00;99.90;;;;;;4934340;29;20184;-79
2024/03/16 02:51:56;;;;;;;1.50;0.70;;;12.10;99.90;;;;;;4934755;29;20453;-79
2024/03/16 02:54:21;;;;;;;2.00;0.77;;;12.00;99.90;;;;;;4934109;29;20177;-79
2024/03/16 02:56:48;;;;;;;2.33;0.80;;;12.00;99.90;;;;;;4936274;29;20593;-79
2024/03/16 02:59:13;;;;;;;1.50;0.60;;;12.00;99.90;;;;;;4936170;29;20621;-80
2024/03/16 03:01:42;;;;;;;4.30;0.90;;;12.10;99.90;;;;;;4935833;29;20247;-81
2024/03/16 03:04:09;;;;;;;5.63;0.70;;;12.10;99.90;;;;;;4935704;29;20201;-81
2024/03/16 03:06:35;;;;;;;2.50;1.35;;;12.10;99.90;;;;;;4936643;29;20291;-79
2024/03/16 03:09:01;;;;;;;1.83;0.60;;;12.10;99.90;;;;;;4934785;29;20271;-79
2024/03/16 03:11:29;;;;;;;1.80;0.75;;;12.10;99.90;;;;;;4936009;29;20193;-79
2024/03/16 03:13:55;;;;;;;1.48;0.75;;;12.20;99.90;;;;;;4918636;29;20253;-79
2024/03/16 03:16:21;;;;;;;3.00;0.70;;;12.20;99.90;;;;;;4927201;29;20648;-79
2024/03/16 03:18:53;;;;;;;1.90;0.87;;;12.20;99.90;;;;;;4936002;29;20636;-80
2024/03/16 03:21:19;;;;;;;2.42;0.98;;;12.20;99.90;;;;;;4934235;29;20185;-80
2024/03/16 03:23:45;;;;;;;1.43;0.80;;;12.20;99.90;;;;;;4935440;29;20217;-80
2024/03/16 03:26:11;;;;;;;1.50;0.83;;;12.20;99.90;;;;;;4934594;29;20181;-80
2024/03/16 03:28:37;;;;;;;2.13;0.70;;;12.30;99.90;;;;;;4934341;29;20208;-81
2024/03/16 03:31:09;;;;;;;2.35;0.90;;;12.30;99.90;;;;;;4934209;29;20937;-81
2024/03/16 03:33:34;;;;;;;1.70;0.90;;;12.30;99.90;;;;;;4934020;29;20283;-80
2024/03/16 03:36:02;;;;;;;3.47;1.00;;;12.30;99.90;;;;;;4935827;29;20287;-80
2024/03/16 03:38:28;;;;;;;2.97;1.00;;;12.30;99.90;;;;;;4934760;29;20359;-80
2024/03/16 03:40:54;;;;;;;1.65;0.85;;;12.40;99.90;;;;;;4933289;29;20276;-80
2024/03/16 03:43:22;;;;;;;1.90;1.00;;;12.40;99.90;;;;;;4941005;29;20224;-80
2024/03/16 03:45:57;;;;;;;3.80;1.50;;;12.40;99.90;;;;;;4954637;29;20611;-80
2024/03/16 03:50:49;;;;;;;3.08;1.10;;;12.40;99.90;;;;;;4954504;29;20157;-80
2024/03/16 03:53:16;;;;;;;5.28;1.40;;;12.50;99.90;;;;;;4953507;29;20216;-81
2024/03/16 03:55:42;;;;;;;3.47;1.20;;;12.50;99.90;;;;;;4935847;29;20181;-79
2024/03/16 03:58:08;;;;;;;3.00;1.05;;;12.50;99.90;;;;;;4936524;29;20233;-81
2024/03/16 04:00:34;;;;;;;2.23;0.90;;;12.50;99.90;;;;;;4936825;29;20185;-81
2024/03/16 04:03:00;;;;;;;2.27;1.20;;;12.60;99.90;;;;;;4940084;29;20226;-81
2024/03/16 04:05:29;;;;;;;4.33;1.23;;;12.60;99.90;;;;;;4938970;29;20589;-81
2024/03/16 04:07:54;;;;;;;3.80;1.50;;;12.60;99.90;;;;;;4936575;29;20627;-80
2024/03/16 04:10:21;;;;;;;1.80;1.10;;;12.60;99.90;;;;;;4936280;29;20178;-81
2024/03/16 04:12:47;;;;;;;2.90;1.27;;;12.70;99.90;;;;;;4950076;28;20197;-81
2024/03/16 04:15:13;;;;;;;1.73;0.90;;;12.70;99.90;;;;;;4935896;29;20181;-81
2024/03/16 04:17:39;;;;;;;1.60;1.00;;;12.70;99.90;;;;;;4939777;29;20185;-80
2024/03/16 04:20:14;;;;;;;2.20;1.03;;;12.70;99.90;;;;;;4941804;29;20605;-80
2024/03/16 04:22:41;;;;;;;2.38;1.45;;;12.70;99.90;;;;;;4941191;29;20199;-81
2024/03/16 04:25:09;;;;;;;1.98;1.08;;;12.70;99.90;;;;;;4945505;29;20185;-81
2024/03/16 04:27:35;;;;;;;2.95;1.75;;;12.80;99.90;;;;;;4958426;29;20221;-81
2024/03/16 04:30:02;;;;;;;2.88;1.40;;;12.80;99.90;;;;;;4936628;29;20276;-80
2024/03/16 04:32:28;;;;;;;4.93;1.35;;;12.80;99.90;;;;;;4935488;29;20219;-81
2024/03/16 04:34:54;;;;;;;2.43;1.50;;;12.80;99.90;;;;;;4935526;29;20181;-81
2024/03/16 04:37:20;;;;;;;4.73;1.70;;;12.80;99.90;;;;;;4935299;29;20667;-81
2024/03/16 04:39:47;;;;;;;2.17;1.20;;;12.90;99.90;;;;;;4917328;29;20296;-81
2024/03/16 04:42:14;;;;;;;2.20;1.33;;;12.90;99.90;;;;;;4932453;29;20621;-81
2024/03/16 04:44:40;;;;;;;2.03;1.60;;;12.90;99.90;;;;;;4933774;29;20652;-81
2024/03/16 04:47:06;;;;;;;4.67;1.33;;;12.90;99.90;;;;;;4932586;29;20208;-81
2024/03/16 04:49:32;;;;;;;2.50;1.23;;;13.00;99.90;;;;;;4932123;29;20680;-81
2024/03/16 04:51:59;;;;;;;4.32;1.30;;;13.00;99.90;;;;;;4931704;29;20577;-81
2024/03/16 04:54:25;;;;;;;3.47;1.58;;;13.00;99.90;;;;;;4933704;29;20243;-81
2024/03/16 04:56:51;;;;;;;4.53;1.67;;;13.00;99.90;;;;;;4933816;29;20565;-75
2024/03/16 04:59:16;;;;;;;4.87;1.67;;;13.00;99.90;;;;;;4935240;29;20628;-75
2024/03/16 05:01:42;;;;;;;3.23;1.40;;;13.00;99.90;;;;;;4936784;29;20275;-75
2024/03/16 05:04:08;;;;;;;3.10;1.40;;;13.00;99.90;;;;;;4937247;29;20208;-75
2024/03/16 05:06:34;;;;;;;3.23;1.97;;;13.00;99.90;;;;;;4919930;29;20177;-75
2024/03/16 05:09:06;;;;;;;2.50;1.60;;;13.10;99.90;;;;;;4936981;29;20181;-75
2024/03/16 05:11:36;;;;;;;2.10;1.80;;;13.10;99.90;;;;;;4919713;29;20268;-75
2024/03/16 05:14:09;;;;;;;3.30;1.40;;;13.10;99.90;;;;;;4936304;29;20616;-75
2024/03/16 05:16:39;;;;;;;2.90;1.40;;;13.10;99.90;;;;;;4937202;29;20593;-75
2024/03/16 05:19:06;;;;;;;4.27;1.90;;;13.10;99.90;;;;;;4937016;29;20599;-76
2024/03/16 05:21:34;;;;;;;4.20;1.70;;;13.10;99.90;;;;;;4935654;29;20596;-76
2024/03/16 05:24:00;;;;;;;3.30;1.50;;;13.00;99.90;;;;;;4936584;29;20687;-75
2024/03/16 05:26:28;;;;;;;3.53;1.50;;;13.00;99.90;;;;;;4937013;29;20176;-75
2024/03/16 05:28:55;;;;;;;4.40;1.20;;;13.00;99.90;;;;;;4935809;29;21536;-75
2024/03/16 05:31:21;;;;;;;2.88;1.50;;;13.00;99.90;;;;;;4960678;28;20635;-75
2024/03/16 05:33:48;;;;;;;2.20;1.42;;;13.00;99.90;;;;;;4935275;29;20197;-75
2024/03/16 05:36:15;;;;;;;4.30;1.50;;;13.00;99.90;;;;;;4935684;29;20282;-75
2024/03/16 05:38:45;;;;;;;2.90;1.60;;;12.90;99.90;;;;;;4935387;29;21159;-75
2024/03/16 05:41:12;;;;;;;2.33;1.80;;;12.90;99.90;;;;;;4935919;29;20648;-75
2024/03/16 05:43:38;;;;;;;3.30;1.47;;;12.90;99.90;;;;;;4935764;29;20764;-76
2024/03/16 05:46:04;;;;;;;3.03;1.43;;;12.90;99.90;;;;;;4935337;29;20604;-75
2024/03/16 05:48:30;;;;;;;2.57;1.73;;;12.90;99.90;;;;;;4936495;29;20639;-75
2024/03/16 05:50:55;;;;;;;2.67;1.57;;;12.90;99.90;;;;;;4934845;29;20584;-75
2024/03/16 05:53:23;;;;;;;6.27;2.60;;;12.90;99.90;;;;;;4935690;29;20212;-75
2024/03/16 05:55:49;;;;;;;2.85;1.80;;;12.90;99.90;;;;;;4935121;29;20577;-75
2024/03/16 05:58:16;;;;;;;2.50;1.50;;;12.90;99.90;;;;;;4935070;29;20189;-75
2024/03/16 06:00:42;;;;;;;2.93;2.30;;;12.90;99.90;;;;;;4919151;29;20576;-75
2024/03/16 06:03:07;;;;;;;4.22;2.63;;;12.90;99.90;;;;;;4934080;29;20637;-74
2024/03/16 06:05:35;;;;;;;3.60;2.83;;;12.90;99.90;;;;;;4943026;29;20536;-74
2024/03/16 06:08:04;;;;;;;3.58;2.47;;;12.90;99.90;;;;;;4936351;29;20211;-73
2024/03/16 06:10:33;;;;;;;2.17;1.75;;;12.90;99.90;;;;;;4928061;29;20197;-75
2024/03/16 06:13:00;;;;;;;5.67;2.80;;;12.90;99.90;;;;;;4935685;29;20196;-74
2024/03/16 06:15:26;;;;;;;3.70;2.85;;;12.90;99.90;;;;;;4934880;29;20587;-74
2024/03/16 06:17:52;;;;;;;4.83;2.70;;;12.90;99.90;;;;;;4935182;29;20177;-73
2024/03/16 06:20:18;;;;;;;4.03;2.80;;;12.90;99.90;;;;;;4935935;29;20584;-74
2024/03/16 06:22:44;;;;;;;5.47;3.80;;;12.90;99.90;;;;;;4918273;29;20203;-74
2024/03/16 06:25:12;;;;;;;5.05;2.75;;;12.90;99.90;;;;;;4934840;29;20589;-74
2024/03/16 06:27:49;;;;;;;4.10;3.03;;;12.90;99.90;;;;;;4934788;29;20525;-74
2024/03/16 06:30:19;;;;;;;4.67;2.90;;;13.00;99.90;;;;;;4934867;29;20616;-75
2024/03/16 06:35:48;;;;;;;4.53;2.75;;;13.00;99.90;;;;;;4895708;29;20217;-74
2024/03/16 06:38:13;;;;;;;7.03;3.60;;;13.00;99.90;;;;;;4906679;29;20217;-74
2024/03/16 06:40:39;;;;;;;7.30;4.40;;;13.00;99.90;;;;;;4935079;29;20585;-74
2024/03/16 06:43:05;;;;;;;5.77;3.97;;;13.00;99.90;;;;;;4934694;29;20197;-74
2024/03/16 06:45:31;;;;;;;7.70;4.27;;;13.00;99.90;;;;;;4934151;29;20209;-74
2024/03/16 06:47:57;;;;;;;5.20;3.57;;;12.90;99.90;;;;;;4935275;29;20268;-73
2024/03/16 06:50:22;;;;;;;4.77;2.70;;;12.90;99.90;;;;;;4933975;29;20600;-74
2024/03/16 06:52:48;;;;;;;4.20;2.63;;;12.80;99.90;;;;;;4933368;29;20648;-74
2024/03/16 06:55:17;;;;;;;7.60;3.67;;;12.70;99.90;;;;;;4933552;29;20188;-73
2024/03/16 06:57:44;;;;;;;6.68;2.75;;;12.60;99.90;;;;;;4935121;29;20189;-73
2024/03/16 07:00:11;;;;;;;4.68;2.15;;;12.40;99.90;;;;;;4935129;29;20185;-74
2024/03/16 07:02:37;;;;;;;3.92;2.42;;;12.40;99.90;;;;;;4934145;29;20213;-73
2024/03/16 07:05:03;;;;;;;2.93;2.07;;;12.30;99.90;;;;;;4935183;29;20196;-74
2024/03/16 07:07:30;;;;;;;2.63;2.17;;;12.20;99.90;;;;;;4934816;29;20239;-74
2024/03/16 07:09:55;;;;;;;6.03;2.10;;;12.10;99.90;;;;;;4933574;29;20177;-74
2024/03/16 07:12:21;;;;;;;4.07;2.33;;;12.10;99.90;;;;;;4934184;29;20203;-74
2024/03/16 07:14:47;;;;;;;4.67;2.03;;;12.10;99.90;;;;;;4934934;29;20212;-74
2024/03/16 07:17:13;;;;;;;2.63;2.07;;;12.10;99.90;;;;;;4934763;29;20556;-74
2024/03/16 07:19:38;;;;;;;4.20;2.60;;;12.20;99.90;;;;;;4934507;29;20589;-74
2024/03/16 07:22:04;;;;;;;3.30;2.40;;;12.20;99.90;;;;;;4900365;29;20189;-74
2024/03/16 07:24:30;;;;;;;5.53;3.10;;;12.30;99.90;;;;;;4932901;29;20177;-74
2024/03/16 07:26:55;;;;;;;4.20;3.23;;;12.30;99.90;;;;;;4932942;29;20205;-74
2024/03/16 07:29:21;;;;;;;5.20;2.60;;;12.20;99.90;;;;;;4934486;29;20184;-74
2024/03/16 07:31:49;;;;;;;3.90;2.90;;;12.20;99.90;;;;;;4932755;29;20173;-74
2024/03/16 07:34:15;;;;;;;4.00;2.80;;;12.20;99.90;;;;;;4959471;28;20212;-74
2024/03/16 07:36:41;;;;;;;6.47;2.92;;;12.20;99.90;;;;;;4933093;29;20181;-74
2024/03/16 07:39:08;;;;;;;4.68;3.70;;;12.30;99.90;;;;;;4932361;29;20260;-74
2024/03/16 07:41:35;;;;;;;3.92;2.90;;;12.30;99.90;;;;;;4931222;29;20181;-74
2024/03/16 07:44:07;;;;;;;4.00;3.33;;;12.40;99.90;;;;;;5125801;27;20342;-74
2024/03/16 07:46:32;;;;;;;5.50;3.43;;;12.40;99.90;;;;;;5107236;28;20613;-74
2024/03/16 07:49:01;;;;;;;3.47;2.97;;;12.50;99.90;;;;;;5106909;28;20186;-75
2024/03/16 07:51:29;;;;;;;4.53;3.20;;;12.70;99.90;;;;;;5089023;28;20175;-75
2024/03/16 07:53:55;;;;;;;4.37;3.47;;;12.90;99.90;;;;;;5088956;28;20612;-74
2024/03/16 07:56:21;;;;;;;6.73;3.70;;;13.00;99.90;;;;;;5106393;28;20617;-74
2024/03/16 07:58:47;;;;;;;3.10;2.80;;;13.00;99.90;;;;;;5106608;28;20588;-74
2024/03/16 08:01:13;;;;;;;4.70;3.50;;;13.00;99.90;;;;;;5107981;28;20569;-74
2024/03/16 08:03:39;;;;;;;5.07;3.57;;;13.00;99.90;;;;;;5106368;28;20645;-74
2024/03/16 08:06:07;;;;;;;7.00;3.37;;;13.00;99.90;;;;;;5110865;28;20540;-74
2024/03/16 08:08:33;;;;;;;3.67;3.37;;;12.90;99.90;;;;;;5107425;28;20168;-74
2024/03/16 08:10:59;;;;;;;4.43;3.50;;;12.90;99.90;;;;;;5108201;28;20583;-75
2024/03/16 08:13:25;;;;;;;6.60;3.23;;;12.80;99.90;;;;;;5106754;28;20608;-75
2024/03/16 08:15:52;;;;;;;3.77;3.37;;;12.80;99.90;;;;;;5107252;28;20187;-75
2024/03/16 08:18:17;;;;;;;4.28;2.80;;;12.70;99.90;;;;;;5106926;28;20613;-75
2024/03/16 08:20:43;;;;;;;3.90;3.17;;;12.60;99.90;;;;;;5107826;28;20185;-75
2024/03/16 08:23:09;;;;;;;4.40;3.13;;;12.60;99.90;;;;;;5106066;28;20732;-75
2024/03/16 08:25:35;;;;;;;4.13;3.43;;;12.60;99.90;;;;;;5108071;28;20247;-75
2024/03/16 08:28:01;;;;;;;3.80;3.20;;;12.80;99.90;;;;;;5106556;28;20175;-75
2024/03/16 08:30:26;;;;;;;3.13;2.53;;;12.80;99.90;;;;;;5105823;28;20265;-75
2024/03/16 08:32:52;;;;;;;3.23;2.40;;;12.80;99.90;;;;;;5110511;28;20233;-75
2024/03/16 08:35:19;;;;;;;3.30;2.90;;;12.90;99.90;;;;;;5111552;28;20175;-76
2024/03/16 08:37:44;;;;;;;3.30;2.80;;;12.80;99.90;;;;;;5112107;28;20955;-75
2024/03/16 08:40:13;;;;;;;2.30;1.83;;;12.80;99.90;;;;;;5105711;28;20606;-79
2024/03/16 08:42:40;;;;;;;4.63;1.90;;;12.70;99.90;;;;;;5116430;28;20714;-76
2024/03/16 08:45:10;;;;;;;7.80;3.00;;;12.60;99.90;;;;;;5120251;28;20582;-76
2024/03/16 08:47:36;;;;;;;2.27;1.63;;;12.60;99.90;;;;;;5118853;28;20588;-79
2024/03/16 08:50:04;;;;;;;3.50;1.67;;;12.60;99.90;;;;;;5122012;28;20966;-75
2024/03/16 08:52:30;;;;;;;3.03;1.83;;;12.60;99.90;;;;;;5115367;28;20617;-76
2024/03/16 08:54:56;;;;;;;3.40;2.33;;;12.70;99.90;;;;;;5117381;28;20594;-79
2024/03/16 08:57:22;;;;;;;3.63;1.17;;;12.90;99.90;;;;;;5098373;28;20582;-78
2024/03/16 08:59:48;;;;;;;2.00;1.00;;;13.10;99.90;;;;;;5095007;28;20263;-79
2024/03/16 09:02:14;;;;;;;2.80;1.00;;;13.30;99.90;;;;;;5097950;28;21218;-78
2024/03/16 09:04:40;;;;;;;4.97;1.40;;;13.40;99.90;;;;;;5087357;28;20664;-78
2024/03/16 09:07:06;;;;;;;2.07;1.00;;;13.60;99.90;;;;;;5109209;28;20915;-79
2024/03/16 09:09:32;;;;;;;3.37;1.00;;;13.70;99.90;;;;;;5095817;28;20186;-78
2024/03/16 09:11:58;;;;;;;3.10;1.53;;;13.80;99.90;;;;;;5099646;28;20589;-78
2024/03/16 09:14:23;;;;;;;1.80;1.00;;;13.80;99.90;;;;;;5096127;28;20171;-78
2024/03/16 09:16:49;;;;;;;3.47;1.10;;;13.70;99.90;;;;;;5094231;28;20175;-78
2024/03/16 09:19:15;;;;;;;2.00;1.07;;;13.60;99.90;;;;;;5093452;28;20175;-78
2024/03/16 09:21:40;;;;;;;2.03;1.00;;;13.60;99.90;;;;;;5093003;28;20258;-78
2024/03/16 09:24:06;;;;;;;4.20;1.30;;;13.50;99.90;;;;;;5091979;28;20314;-78
2024/03/16 09:26:32;;;;;;;1.57;1.00;;;13.50;99.90;;;;;;5091728;28;20203;-78
2024/03/16 09:28:58;;;;;;;2.20;0.90;;;13.40;99.90;;;;;;5094452;28;20195;-78
2024/03/16 09:31:24;;;;;;;2.67;0.90;;;13.40;99.90;;;;;;5094290;28;20649;-78
2024/03/16 09:33:50;;;;;;;1.60;0.77;;;13.30;99.90;;;;;;5099386;28;20196;-78
2024/03/16 09:36:16;;;;;;;5.27;0.90;;;13.30;99.90;;;;;;5099708;28;20932;-78
2024/03/16 09:38:42;;;;;;;2.40;0.70;;;13.20;99.90;;;;;;5098890;28;20592;-78
2024/03/16 09:41:17;;;;;;;5.53;0.90;;;13.20;99.90;;;;;;5103634;28;20584;-78
2024/03/16 09:43:44;;;;;;;3.13;0.70;;;13.10;99.90;;;;;;5085912;28;20672;-76
2024/03/16 09:46:10;;;;;;;2.40;0.80;;;13.10;99.90;;;;;;5093018;28;20622;-76
2024/03/16 09:48:37;;;;;;;1.90;0.70;;;13.10;99.90;;;;;;5101017;28;20937;-76
2024/03/16 09:51:04;;;;;;;2.20;0.73;;;13.10;99.90;;;;;;5086137;28;20586;-76
2024/03/16 09:53:31;;;;;;;4.70;0.83;;;13.10;99.90;;;;;;5101637;28;20609;-76
2024/03/16 09:56:09;;;;;;;4.33;0.80;;;13.10;99.90;;;;;;5101505;28;21000;-76
2024/03/16 09:58:38;;;;;;;3.00;0.90;;;13.10;99.90;;;;;;5082633;28;20589;-76
2024/03/16 10:01:05;;;;;;;1.60;0.70;;;13.20;99.90;;;;;;5099308;28;20624;-76
2024/03/16 10:03:32;;;;;;;2.87;1.00;;;13.30;99.90;;;;;;5114181;28;20641;-76
2024/03/16 10:06:05;;;;;;;3.27;1.03;;;13.40;99.90;;;;;;5083407;28;20661;-76
2024/03/16 10:08:38;;;;;;;2.80;0.80;;;13.50;99.90;;;;;;5099345;28;20604;-76
2024/03/16 10:11:15;;;;;;;5.63;0.70;;;13.50;99.90;;;;;;5099377;28;20577;-75
2024/03/16 10:13:57;;;;;;;2.10;0.80;;;13.60;99.90;;;;;;5079565;28;20609;-76
2024/03/16 10:16:24;;;;;;;3.90;0.80;;;13.60;99.90;;;;;;5093825;28;20697;-74
2024/03/16 10:18:52;;;;;;;4.00;0.77;;;13.60;99.90;;;;;;5074005;28;20658;-74
2024/03/16 10:21:18;;;;;;;2.00;0.80;;;13.50;99.90;;;;;;5074177;28;20578;-74
2024/03/16 10:23:44;;;;;;;3.10;1.00;;;13.40;99.90;;;;;;5091001;28;21300;-74
2024/03/16 10:26:12;;;;;;;2.20;0.77;;;13.30;99.90;;;;;;5090619;28;20180;-74
2024/03/16 10:28:41;;;;;;;3.57;0.70;;;13.30;99.90;;;;;;5090326;28;20574;-74
2024/03/16 10:31:09;;;;;;;5.93;0.90;;;13.30;99.90;;;;;;5092397;28;20605;-74
2024/03/16 10:33:38;;;;;;;2.27;0.70;;;13.20;99.90;;;;;;5091391;28;20617;-74
2024/03/16 10:36:05;;;;;;;2.47;0.70;;;13.20;99.90;;;;;;5091205;28;20609;-74
2024/03/16 10:38:31;;;;;;;1.55;0.77;;;13.10;99.90;;;;;;5073658;28;20582;-74
2024/03/16 10:41:06;;;;;;;3.17;0.73;;;13.10;99.90;;;;;;5092377;28;20262;-74
2024/03/16 10:43:33;;;;;;;2.17;0.90;;;13.10;99.90;;;;;;5090537;28;20684;-74
2024/03/16 10:45:59;;;;;;;1.40;0.60;;;13.10;99.90;;;;;;5092847;28;20581;-74
2024/03/16 10:48:25;;;;;;;1.40;0.70;;;13.10;99.90;;;;;;5089090;28;20739;-74
2024/03/16 10:50:53;;;;;;;2.50;0.70;;;13.10;99.90;;;;;;5103771;28;20589;-75
2024/03/16 10:53:20;;;;;;;2.20;0.70;;;13.10;99.90;;;;;;5121762;28;20684;-75
2024/03/16 10:55:47;;;;;;;1.50;0.63;;;13.10;99.90;;;;;;5098541;28;20578;-74
2024/03/16 10:58:23;;;;;;;2.30;0.75;;;13.20;99.90;;;;;;5098589;28;20582;-74
2024/03/16 11:00:49;;;;;;;2.77;0.70;;;13.20;99.90;;;;;;5077448;28;20263;-74
2024/03/16 11:03:27;;;;;;;1.63;0.60;;;13.30;99.90;;;;;;5078316;28;20645;-74
2024/03/16 11:06:09;;;;;;;2.60;0.70;;;13.30;99.90;;;;;;5092319;28;20581;-74
2024/03/16 11:08:36;;;;;;;2.40;0.70;;;13.30;99.90;;;;;;5087310;28;20565;-75
2024/03/16 11:11:03;;;;;;;1.70;0.70;;;13.30;99.90;;;;;;5092678;28;20570;-74
2024/03/16 11:13:29;;;;;;;4.97;1.27;;;13.30;99.90;;;;;;5091155;28;20664;-75
2024/03/16 11:15:57;;;;;;;1.83;0.80;;;13.20;99.90;;;;;;5090379;28;20594;-75
2024/03/16 11:18:23;;;;;;;2.90;0.70;;;13.10;99.90;;;;;;5088039;28;20228;-75
2024/03/16 11:20:54;;;;;;;1.45;0.60;;;13.10;99.90;;;;;;5089154;28;20937;-74
2024/03/16 11:23:23;;;;;;;3.13;0.80;;;13.10;99.90;;;;;;5087326;28;20206;-74
2024/03/16 11:25:50;;;;;;;3.20;0.80;;;13.00;99.90;;;;;;5096822;28;20615;-75
2024/03/16 11:28:19;;;;;;;1.57;0.63;;;13.00;99.90;;;;;;5087282;28;20705;-74
2024/03/16 11:30:46;;;;;;;1.50;0.60;;;13.00;99.90;;;;;;5104922;28;20600;-74
2024/03/16 11:33:19;;;;;;;2.53;0.70;;;13.00;99.90;;;;;;5090449;28;20644;-74
2024/03/16 11:35:46;;;;;;;1.63;0.60;;;13.00;99.90;;;;;;5089727;28;20627;-74
2024/03/16 11:38:15;;;;;;;1.93;0.80;;;13.00;99.90;;;;;;5089609;28;20582;-74
2024/03/16 11:40:47;;;;;;;3.93;1.07;;;13.00;99.90;;;;;;5094651;28;20593;-74
2024/03/16 11:43:13;;;;;;;1.80;0.60;;;13.10;99.90;;;;;;5097851;28;20641;-75
2024/03/16 11:45:47;;;;;;;3.00;0.80;;;13.20;99.90;;;;;;5099370;28;20248;-75
2024/03/16 11:48:13;;;;;;;2.83;0.80;;;13.40;99.90;;;;;;5096572;28;20621;-74
2024/03/16 11:50:39;;;;;;;1.70;0.80;;;13.50;99.90;;;;;;5096393;28;20606;-74
2024/03/16 11:53:09;;;;;;;4.70;0.80;;;13.70;99.90;;;;;;5095850;28;20625;-75
2024/03/16 11:55:38;;;;;;;5.17;0.80;;;14.00;99.90;;;;;;5090347;28;20590;-75
2024/03/16 11:58:04;;;;;;;3.97;0.80;;;14.20;99.90;;;;;;5091016;28;20680;-77
2024/03/16 12:00:31;;;;;;;1.97;0.70;;;14.30;99.90;;;;;;5091946;28;20639;-76
2024/03/16 12:02:59;;;;;;;2.13;0.80;;;14.30;99.90;;;;;;5089408;28;20215;-77
2024/03/16 12:05:26;;;;;;;1.50;0.73;;;14.30;99.90;;;;;;5090033;28;20684;-75
2024/03/16 12:07:52;;;;;;;2.53;0.67;;;14.20;99.90;;;;;;5056394;28;20590;-76
2024/03/16 12:10:19;;;;;;;3.30;0.70;;;14.20;99.90;;;;;;5091302;28;20589;-74
2024/03/16 12:12:46;;;;;;;2.13;0.60;;;14.20;99.90;;;;;;5090851;28;20621;-76
2024/03/16 12:15:17;;;;;;;1.40;0.60;;;14.20;99.90;;;;;;5090103;28;20578;-74
2024/03/16 12:17:43;;;;;;;1.40;0.60;;;14.20;99.90;;;;;;5091242;28;20975;-76
2024/03/16 12:20:11;;;;;;;2.73;0.60;;;14.40;99.90;;;;;;5091886;28;20621;-74
2024/03/16 12:23:03;;;;;;;1.33;0.47;;;14.40;99.90;;;;;;5091077;28;21093;-76
2024/03/16 12:25:28;;;;;;;2.33;0.60;;;14.40;99.90;;;;;;5090608;28;20590;-77
2024/03/16 12:27:54;;;;;;;3.83;0.60;;;14.60;99.90;;;;;;5091727;28;20589;-77
2024/03/16 12:30:23;;;;;;;1.60;0.60;;;14.70;99.90;;;;;;5094079;28;20179;-76
2024/03/16 12:32:49;;;;;;;1.83;0.60;;;14.80;99.90;;;;;;5095512;28;20617;-76
2024/03/16 12:35:14;;;;;;;1.60;0.60;;;14.80;99.90;;;;;;5096729;28;20593;-75
2024/03/16 12:37:40;;;;;;;2.40;0.60;;;14.90;99.90;;;;;;5100935;28;20233;-75
2024/03/16 12:40:07;;;;;;;1.40;0.60;;;14.90;99.90;;;;;;5096968;28;20647;-75
2024/03/16 12:42:33;;;;;;;1.37;0.60;;;15.00;99.90;;;;;;5098809;28;20641;-76
2024/03/16 12:44:59;;;;;;;1.90;0.67;;;15.00;99.90;;;;;;5101832;28;20654;-75
2024/03/16 12:47:28;;;;;;;1.50;0.60;;;15.10;99.90;;;;;;5102353;28;20243;-75
2024/03/16 12:49:54;;;;;;;2.27;0.60;;;15.10;99.90;;;;;;5098755;28;20586;-74
2024/03/16 12:52:23;;;;;;;1.50;0.60;;;15.20;99.90;;;;;;5098193;28;20621;-75